Skip to content

GuitarMania

List of Articles
번호 제목 글쓴이 날짜 조회 수
2119 편곡-가브리엘의 오보에(트레몰로) 15 file 최병욱 2007.09.30 12357
2118 [연주회]les 4 points cardinaux 3 file 노경훈 2007.09.30 7671
2117 [연주회]farandole (- bizet) - 앙상블 5 file 노경훈 2007.09.30 11528
2116 [연주회]canarios - (앙상블 ver.) 7 file 노경훈 2007.09.30 9990
2115 당신은 사랑받기 위해 태어난 사람 - 이민섭 (arr. 서윤일) 1 file 아돌 2007.09.28 8403
2114 알함브라궁전의 추억 7 file HWA 2007.09.28 7537
2113 Love Affair 3 니슈가NSG 2007.09.27 7819
2112 Tristeza 13 니슈가NSG 2007.09.27 10280
2111 California Breeze 7 file 정오 2007.09.23 7684
2110 Suite Italiana II.Adagio 1 file 루피 2007.09.22 9543
2109 Preludio de Adios ---- Alfonso Montes (재녹음) 14 file 고정석 2007.09.22 9969
2108 사랑의 로망스 9 file 밀롱가. 2007.09.21 7900
2107 L'Encouragement Op.54 - F. Sor (동영상) 6 ㄲㅏㅇ 2007.09.21 7050
2106 슈베르트- 물위에서 노래함.(이중주) 48 file 기타레타 2007.09.20 9746
2105 Tansman의 Cavatina 조곡 중에서 Saraband 19 file limnz 2007.09.16 6480
2104 오빠생각 / 안형수 편곡 17 file orpheus15 2007.09.12 11248
2103 샤콘느 from Partita No.2 in D minor by J.S. Bach 52 file Jason 2007.09.11 9543
2102 Danza Brasilrea 5 file 좁은길로 2007.09.08 7377
2101 [동영상]조지윈스턴의 캐논 변주곡(새로운 편곡) 61 최병욱 2007.09.08 19543
2100 Venus(동영상) 4 야매 2007.09.07 7753
2099 내마음의 보석상자(동영상) 7 야매 2007.09.07 9764
2098 TOmmy Emmanuel-Angelina 10 file 좁은길로 2007.09.05 6916
2097 녹음은 어떻게 하나요? 2 소르초이 2007.09.05 7415
2096 가을편지 / 안형수 편곡 15 file orpheus15 2007.09.04 8630
2095 줄리아니 기타협주곡 5 file buyho 2007.09.04 7404
2094 Beautiful Dreamer(토스토) 7 file 까치 2007.08.30 9371
2093 Les Feuilles Mortes (고엽) - Joseph Kosma 20 file 고정석 2007.08.29 8072
2092 Stairway to Heaven, Classical/Unplugged version 기악 독주 7 file 2007.08.28 7611
2091 죄송한! 탕고 안 스까이 바이 로랑디앙 (조율 맞춰 재업)ㅠ 8 file buyho 2007.08.26 6657
2090 알함브라궁전의 추억 12 file 정면 2007.08.24 7827
2089 F. Sor의 인커리지먼트 18 file 바하의꿈 2007.08.24 8031
2088 헨델의 대장간변주?^^ Handel--Blacksmith Variations 19 file 바하의꿈 2007.08.23 9044
2087 망고레의 Contemplacion (깊은 그리움) 24 file 아이모레스 2007.08.22 8066
2086 Falla--ThreeCorneredHat(KimMoonHyung & Chung Sehee) 7 file 바하의꿈 2007.08.21 8481
2085 Yuichi Watanabe - Morning Dew 5 file 2007.08.21 8616
2084 Sleepers, Awake! from Cantata BWV140 9 file April 2007.08.20 6976
2083 텅 빈 놀이터 II by devilous 9 file devilous 2007.08.20 6519
2082 [동영상] Barrios - Una Limosna por el amor de Dios (최후의 트레몰로) 39 file 김상욱 2007.08.17 14370
2081 milonga 6 file 2007.08.15 9223
2080 바흐 // Choral from cantata147 arr.David Russell 31 file 진느 2007.08.14 8034
2079 Tango En Skai 11 file 좁은길로 2007.08.13 9747
2078 sunflower 14 file 한사랑 2007.08.13 8065
2077 maria luisa 6 file sky600 2007.08.12 9269
2076 Adelita 2 file sky600 2007.08.12 5544
2075 Classical Gas/Mason Williams -클래식컬 개스 23 file Jason 2007.08.10 10467
2074 Sor Etude#6 10 file 밀롱가. 2007.08.10 6885
2073 로드리고 // 고풍스런 티엔토 30 file 진느 2007.08.08 7859
2072 알베니즈-야자나무 아래에서 13 file 기타레타 2007.08.08 5990
2071 Partners in Praise / 안신영님 편곡 10 file orpheus15 2007.08.07 6685
2070 Estudio No.12 / F. Sor 13 file 이진성 2007.08.06 9337
2069 Sleeprs, Awake! 눈뜨라부르는소리있어 7 file 좁은길로 2007.08.05 7356
2068 로망스 no.1(이중주)-끌레앙 16 file 체르니 2007.08.04 13416
2067 The old rugged cross by G. Bennard 10 file Jason 2007.08.02 6725
2066 Lamento No.2 / F. Kleynjans 12 file 이진성 2007.08.01 9117
2065 클레이앙스-로망스1번(이중주) 6 file 기타레타 2007.07.30 7184
2064 부탁 김효석 2007.07.29 6940
2063 Fur Elise by L. Van Beethoven 62 file Jason 2007.07.28 9739
2062 사람이 꽃보다 아름다워~~~ 4 야매 2007.07.28 9751
2061 P. Bellinati Baiao de Gude 서울기타콰르텟 4 file sgq 2007.07.27 9360
2060 A. Piazzolla Liebertango 1 file sgq 2007.07.27 9432
2059 A. Piazzolla Oblivion(망각) 3 file sgq 2007.07.27 9690
2058 A. Piazzolla Quattro Stagioni (부에노스아이레스의 사계) 1. Primavera portend (봄) 8 file sgq 2007.07.27 7336
2057 BWV1006a Prelude 7 file 좁은길로 2007.07.27 10537
2056 (이중주) Green Sleeves 20 file niceplace 2007.07.27 9357
2055 Septiembre (Maximo Diego Pujol) 21 file 라일 2007.07.26 9336
2054 Aria no.1 - F. Kleynjans 11 file bradpitt 2007.07.24 7964
2053 유키 구라모토의 Lake Louise(새로운 편곡) 17 file 최병욱 2007.07.23 10540
2052 샤콘느 뒤에뒤부분 7 file 좁은길로 2007.07.23 6967
2051 Fantasia Arabe by Sabicas 22 file Jason 2007.07.22 6750
2050 월량대표아적심(月亮代表我的心) 29 이진성 2007.07.19 11137
2049 Variation on Theme of Mozart - F.Sor 32 file Jason 2007.07.15 7697
2048 Wonderful tonight 43 file - 情 - 2007.07.14 9844
2047 Bach - BWV1007 Prelude & Allemande 16 file 김상욱 2007.07.14 7929
2046 Pierre Bensusan - 아도니스의 정원 12 file 찬찬 2007.07.14 7377
2045 이루마의 Kiss the Rain 6 file 최병욱 2007.07.13 9560
2044 G선상의 아리아 - J.S.BACH 43 file 기타레타 2007.07.13 10168
2043 헨델의 아리아 23 file 아이모레스 2007.07.12 9631
2042 이 곡 제목이 뭔가요? 3 file -_ - 2007.07.12 6378
2041 엔커리지먼트-소르 39 file 기타레타 2007.07.11 8727
2040 Giuliani-- Rossiniana No.1 (글로빌 아트홀 실황연주) 15 file LDH 2007.07.11 7266
2039 핑거스타일- Sun dance (Kotaro Oshio) 7 file 최병욱 2007.07.11 10074
2038 하프시 팟사 완주--! 4 file 좁은길로 2007.07.10 7971
2037 도적의 노래-ibach 연주 16 file 바하의꿈 2007.07.10 7835
2036 대성당2악장 4 file 좁은길로 2007.07.09 6518
2035 이병우 - 달려 18 file 김상욱 2007.07.09 7960
2034 [영상] 엘레지 Elegie (메르츠 Mertz) 3 2007.07.09 8097
2033 brahms-theme and variations 20 file 기타레타 2007.07.09 7939
2032 소르의 마적입니다... 19 file 화가 2007.07.08 7108
2031 종소리 12 file 좁은길로 2007.07.07 7538
2030 이루마의 When the love falls 7 file 최병욱 2007.07.07 8328
2029 대성당1악장 8 file 좁은길로 2007.07.05 6547
2028 Triste Santuario by Vincent Gomez-슬픈 예배당 17 file Jason 2007.07.05 10882
2027 Kleine Romanze- L. Walker 10 file Jason 2007.07.05 6878
2026 L'HYMNE A L'AMOUR / E.PIAF 24 file April 2007.07.04 6973
2025 이노래어떤가요? Pulo do Gato(P.Bellinati) 15 file MSGr 2007.07.01 9613
2024 BWV1006a 프렐류드 3 file 좁은길로 2007.06.29 9970
2023 Agua e Vinho - Egberto Gismonti 18 file limnz 2007.06.29 9797
2022 F. Tarrega,Capricho Arabe 33 file Jason 2007.06.28 9876
2021 Koyunbaba - C. Domeniconi 25 file 진느 2007.06.27 7009
2020 쉘부르의 우산 3 file nice guy 2007.06.27 8241
Board Pagination ‹ Prev 1 ... 7 8 9 10 11 12 13 14 15 16 17 18 19 20 21 22 23 24 25 26 ... 38 Next ›
/ 38

나눔글꼴 설치 안내


이 PC에는 나눔글꼴이 설치되어 있지 않습니다.

이 사이트를 나눔글꼴로 보기 위해서는
나눔글꼴을 설치해야 합니다.

설치 취소

Designed by sketchbooks.co.kr / sketchbook5 board skin

Sketchbook5, 스케치북5

Sketchbook5, 스케치북5

Sketchbook5, 스케치북5

Sketchbook5, 스케치북5

Powered by Xpress Engine / Designed by hikaru100

abcXYZ, 세종대왕,1234

abcXYZ, 세종대왕,1234